Ozark Regional Airport Mountain Home US
ICAO: KBPK
IATA: WMH
Category: Medium
Scheduled Services: No

Elevation: 928 ft
TransAlt. 18000 ft.

Airport Communications:
ASOS:133.975
MEMPHIS CNTR:126.85
CTAF/UNICOM:123

KBPK Zoom In..

If Map Doesn't Load, Click Here

Runways:

(A) RW 05 length 5001 ft width 75 ft
ILS 111.95 / hdg 49

(B) RW 23 length 5001 ft width 75 ft
---- / hdg 229

Location; KBPK
Day. 24 / Time. 05.43 Zulu
* Altimeter: 29.98
* Temperature: 18° c. 64.4°f.
* Wind from: 160° Speed 03 kn.
Dewpoint: 18° c.
Visibility: 10 Statute Miles.
Clouds: Overcast 600 ft.

KBPK 240543Z AUTO 16003KT 10SM OVC006 18/18 A2998 RMK AO2 CIG 004V009 T01780178 TSNO


Wind From 160°
Speed 03 kn.

 
 
jpsmedia.com for Web Design worldairports.se 2018   terms of use